Flood From: 18-02-2018 16:00 Until: 19-02-2018 16:00 warning for: Flood Level: Yellow info button

Although rather usual in this region, locally or potentially dangerous phenomena are expected. (such as local winds, summer thunderstorms, rising streams or high waves) Be aware and pay attention to the latest weather updates, especially if you carry out activities exposed to weather or close to a stream or shoreline. 


Meteo18 Weather Cam more information Meteo18 Weather Cam


Thunder radar more information blitzortung!


Rain radar more information rain snow radar


Visit our other weather sites:

Template documentation
and downloads

And another site



Weather Underground History page Text

Daily Summary for July 8, 2017 Units:  English    Metric   Both
« Previous Day
Next Day »
Daily Weekly Monthly Yearly Custom
  High: Low: Average:
Temperature: TemperatureC °F 19.7 °F 25.3 °F
Dew Point: DewpointC °F 14.8 °F 17.7 °F
Humidity: Humidity % 43 % 65 %
Wind Speed: WindSpeedKMH mph 0.0 mph 5.1 mph
Wind Gust: WindSpeedGustKMH mph - -
Wind:- - SSE
Pressure: PressurehPa in 1014.8 in -
Precipitation: 1.5 in    
Historical Graphs
 
 
Tabular Data for July 8, 2017
Time Temperature Dew Point Pressure Wind Wind Speed Wind Gust Humidity Rainfall Rate (Hourly)
TemperatureC °F DewpointC °F PressurehPa in Calm     Humidity % HourlyPrecipMM in
00:02 22.9 °F 18.9 °F 1018.5 in Calm     78 % 0.0 in
00:07 22.9 °F 18.9 °F 1018.5 in Calm     78 % 0.0 in
00:12 22.8 °F 18.8 °F 1018.5 in Calm     78 % 0.0 in
00:17 22.6 °F 18.8 °F 1018.5 in Calm     79 % 0.0 in
00:22 22.4 °F 18.8 °F 1018.5 in Calm     80 % 0.0 in
00:32 21.9 °F 18.5 °F 1018.5 in NNE 1.6 mph 4.8 mph 81 % 0.0 in
00:42 22.4 °F 18.8 °F 1018.5 in Calm   4.8 mph 80 % 0.0 in
00:47 22.4 °F 18.6 °F 1018.5 in Calm   4.8 mph 79 % 0.0 in
00:52 22.2 °F 18.6 °F 1018.5 in Calm   4.8 mph 80 % 0.0 in
00:57 22.1 °F 18.5 °F 1018.2 in Calm   3.2 mph 80 % 0.0 in
01:02 22.0 °F 18.6 °F 1018.2 in Calm   1.6 mph 81 % 0.0 in
01:07 21.9 °F 18.5 °F 1018.5 in Calm     81 % 0.0 in
01:12 21.8 °F 18.4 °F 1018.2 in Calm     81 % 0.0 in
01:17 21.7 °F 18.5 °F 1018.2 in Calm     82 % 0.0 in
01:22 21.5 °F 18.3 °F 1018.2 in Calm     82 % 0.0 in
01:27 21.3 °F 18.3 °F 1018.2 in Calm     83 % 0.0 in
01:32 21.3 °F 18.3 °F 1018.2 in West 3.2 mph   83 % 0.0 in
01:37 21.1 °F 18.3 °F 1018.2 in North 1.6 mph 4.8 mph 84 % 0.0 in
01:42 21.1 °F 18.5 °F 1018.2 in North 1.6 mph 4.8 mph 85 % 0.0 in
01:47 21.1 °F 18.5 °F 1018.2 in Calm   4.8 mph 85 % 0.0 in
01:52 21.2 °F 18.4 °F 1018.2 in Calm   3.2 mph 84 % 0.0 in
02:02 21.3 °F 18.1 °F 1018.2 in Calm   1.6 mph 82 % 0.0 in
02:07 21.1 °F 18.1 °F 1018.2 in Calm   1.6 mph 83 % 0.0 in
02:12 21.1 °F 18.3 °F 1018.2 in North 6.4 mph 6.4 mph 84 % 0.0 in
02:17 21.2 °F 18.4 °F 1018.2 in NNW 1.6 mph 6.4 mph 84 % 0.0 in
02:22 21.4 °F 18.4 °F 1018.2 in NW 1.6 mph 6.4 mph 83 % 0.0 in
02:27 21.6 °F 18.4 °F 1018.2 in Calm   6.4 mph 82 % 0.0 in
02:32 21.3 °F 18.1 °F 1018.2 in WNW 1.6 mph 6.4 mph 82 % 0.0 in
02:42 21.1 °F 18.3 °F 1018.2 in North 3.2 mph 3.2 mph 84 % 0.0 in
02:47 21.2 °F 18.2 °F 1018.2 in North 3.2 mph 3.2 mph 83 % 0.0 in
02:52 21.4 °F 18.2 °F 1018.2 in NNW 1.6 mph 4.8 mph 82 % 0.0 in
02:57 21.5 °F 18.3 °F 1018.2 in Calm   4.8 mph 82 % 0.0 in
03:02 21.2 °F 17.8 °F 1018.2 in Calm   4.8 mph 81 % 0.0 in
03:07 20.7 °F 17.7 °F 1018.5 in Calm   3.2 mph 83 % 0.0 in
03:12 20.5 °F 17.9 °F 1018.5 in Calm   3.2 mph 85 % 0.0 in
03:17 20.3 °F 17.7 °F 1018.5 in Calm   3.2 mph 85 % 0.0 in
03:22 20.2 °F 17.6 °F 1018.5 in Calm   3.2 mph 85 % 0.0 in
03:27 20.1 °F 17.7 °F 1018.2 in Calm   1.6 mph 86 % 0.0 in
03:32 19.8 °F 17.6 °F 1018.5 in Calm   1.6 mph 87 % 0.0 in
03:37 19.8 °F 17.6 °F 1018.5 in Calm   1.6 mph 87 % 0.0 in
03:42 19.7 °F 17.7 °F 1018.5 in Calm   4.8 mph 88 % 0.0 in
03:47 19.8 °F 17.8 °F 1018.5 in Calm   4.8 mph 88 % 0.0 in
03:52 19.8 °F 17.8 °F 1018.2 in WNW 3.2 mph 4.8 mph 88 % 0.0 in
03:57 19.8 °F 17.8 °F 1018.5 in NNW 3.2 mph 3.2 mph 88 % 0.0 in
04:02 20.0 °F 17.8 °F 1018.2 in Calm   6.4 mph 87 % 0.0 in
04:07 20.2 °F 17.8 °F 1018.2 in Calm   6.4 mph 86 % 0.0 in
04:12 20.2 °F 17.8 °F 1018.2 in WNW 1.6 mph 6.4 mph 86 % 0.0 in
04:17 20.3 °F 17.9 °F 1018.2 in NNW 4.8 mph 4.8 mph 86 % 0.0 in
04:22 20.7 °F 17.9 °F 1018.2 in North 3.2 mph 4.8 mph 84 % 0.0 in
04:27 20.6 °F 17.8 °F 1017.8 in NNW 1.6 mph 6.4 mph 84 % 0.0 in
04:32 20.5 °F 17.7 °F 1017.8 in NNW 1.6 mph 6.4 mph 84 % 0.0 in
04:42 20.5 °F 17.7 °F 1017.8 in NNW 3.2 mph 3.2 mph 84 % 0.0 in
04:47 20.7 °F 17.7 °F 1017.8 in Calm   4.8 mph 83 % 0.0 in
04:52 20.8 °F 17.8 °F 1018.2 in Calm   4.8 mph 83 % 0.0 in
04:57 20.8 °F 17.8 °F 1018.2 in WNW 1.6 mph 4.8 mph 83 % 0.0 in
05:02 20.8 °F 17.8 °F 1018.2 in NW 3.2 mph 6.4 mph 83 % 0.0 in
05:12 20.7 °F 17.7 °F 1018.2 in NW 1.6 mph 6.4 mph 83 % 0.0 in
05:17 20.7 °F 17.7 °F 1018.2 in WNW 1.6 mph 6.4 mph 83 % 0.0 in
05:22 20.6 °F 17.8 °F 1018.2 in WNW 1.6 mph 6.4 mph 84 % 0.0 in
05:27 20.5 °F 17.7 °F 1018.2 in WNW 3.2 mph 4.8 mph 84 % 0.0 in
05:37 20.3 °F 17.7 °F 1017.8 in NW 3.2 mph 6.4 mph 85 % 0.0 in
05:42 20.2 °F 17.6 °F 1017.8 in Calm   6.4 mph 85 % 0.0 in
05:47 20.1 °F 17.7 °F 1017.8 in Calm   6.4 mph 86 % 0.0 in
05:52 19.9 °F 17.5 °F 1017.8 in NW 1.6 mph 4.8 mph 86 % 0.0 in
06:02 19.8 °F 17.6 °F 1017.8 in NNW 3.2 mph 4.8 mph 87 % 0.0 in
06:12 19.7 °F 17.5 °F 1017.8 in Calm   4.8 mph 87 % 0.0 in
06:17 19.7 °F 17.5 °F 1017.8 in NW 4.8 mph 4.8 mph 87 % 0.0 in
06:22 19.7 °F 17.5 °F 1017.8 in NW 4.8 mph 4.8 mph 87 % 0.0 in
06:27 19.7 °F 17.3 °F 1017.8 in North 1.6 mph 4.8 mph 86 % 0.0 in
06:32 19.7 °F 17.3 °F 1017.8 in WNW 3.2 mph 4.8 mph 86 % 0.0 in
06:37 19.7 °F 17.3 °F 1017.8 in West 1.6 mph 4.8 mph 86 % 0.0 in
06:42 19.7 °F 17.3 °F 1017.8 in Calm   4.8 mph 86 % 0.0 in
06:47 19.8 °F 17.4 °F 1017.8 in Calm   4.8 mph 86 % 0.0 in
06:52 19.9 °F 17.3 °F 1017.8 in Calm   4.8 mph 85 % 0.0 in
06:57 20.0 °F 17.4 °F 1017.8 in Calm   4.8 mph 85 % 0.0 in
07:02 20.2 °F 17.6 °F 1018.2 in NW 1.6 mph 4.8 mph 85 % 0.0 in
07:12 20.4 °F 17.6 °F 1017.8 in Calm   4.8 mph 84 % 0.0 in
07:17 20.5 °F 17.7 °F 1018.2 in Calm   4.8 mph 84 % 0.0 in
07:22 20.7 °F 17.9 °F 1018.2 in Calm   4.8 mph 84 % 0.0 in
07:32 21.2 °F 18.2 °F 1018.2 in NNE 3.2 mph 8.0 mph 83 % 0.0 in
07:37 21.3 °F 18.1 °F 1018.2 in ENE 1.6 mph 8.0 mph 82 % 0.0 in
07:42 21.5 °F 18.1 °F 1018.2 in North 3.2 mph 11.3 mph 81 % 0.0 in
07:47 21.6 °F 18.2 °F 1018.2 in North 6.4 mph 11.3 mph 81 % 0.0 in
07:57 22.0 °F 18.2 °F 1018.2 in North 3.2 mph 12.9 mph 79 % 0.0 in
08:02 22.1 °F 18.3 °F 1018.2 in NNE 3.2 mph 12.9 mph 79 % 0.0 in
08:07 22.3 °F 18.3 °F 1018.2 in Calm   11.3 mph 78 % 0.0 in
08:12 22.6 °F 18.4 °F 1018.5 in NNW 4.8 mph 11.3 mph 77 % 0.0 in
08:17 22.7 °F 18.5 °F 1018.5 in Calm   14.5 mph 77 % 0.0 in
08:22 22.9 °F 18.4 °F 1018.5 in NNW 3.2 mph 14.5 mph 76 % 0.0 in
08:32 23.3 °F 18.4 °F 1018.5 in NNW 8.0 mph 12.9 mph 74 % 0.0 in
08:37 23.5 °F 18.4 °F 1018.5 in NE 11.3 mph 12.9 mph 73 % 0.0 in
08:42 23.6 °F 18.3 °F 1018.5 in NNE 4.8 mph 12.9 mph 72 % 0.0 in
08:47 23.7 °F 18.4 °F 1018.5 in NE 6.4 mph 14.5 mph 72 % 0.0 in
08:52 23.7 °F 18.1 °F 1018.5 in NNE 6.4 mph 16.1 mph 71 % 0.0 in
08:57 23.6 °F 18.0 °F 1018.5 in NNE 6.4 mph 16.1 mph 71 % 0.0 in
09:02 23.6 °F 18.0 °F 1018.5 in NE 9.7 mph 16.1 mph 71 % 0.0 in
09:12 24.2 °F 18.2 °F 1018.5 in NNE 4.8 mph 14.5 mph 69 % 0.0 in
09:17 24.2 °F 17.9 °F 1018.5 in ENE 12.9 mph 17.7 mph 68 % 0.0 in
09:22 24.3 °F 18.0 °F 1018.5 in North 3.2 mph 17.7 mph 68 % 0.0 in
09:32 24.3 °F 17.8 °F 1018.8 in NNE 12.9 mph 16.1 mph 67 % 0.0 in
09:42 24.2 °F 17.7 °F 1018.8 in NNE 8.0 mph 16.1 mph 67 % 0.0 in
09:47 24.3 °F 17.8 °F 1018.8 in NNW 8.0 mph 14.5 mph 67 % 0.0 in
09:52 24.3 °F 17.8 °F 1018.8 in NNE 1.6 mph 12.9 mph 67 % 0.0 in
09:57 24.4 °F 17.9 °F 1018.8 in NNW 8.0 mph 12.9 mph 67 % 0.0 in
10:02 24.6 °F 17.8 °F 1018.8 in North 4.8 mph 12.9 mph 66 % 0.0 in
10:12 24.7 °F 17.9 °F 1018.8 in NNE 9.7 mph 11.3 mph 66 % 0.0 in
10:17 24.8 °F 18.0 °F 1018.8 in NNW 4.8 mph 11.3 mph 66 % 0.0 in
10:22 24.9 °F 17.9 °F 1018.8 in NNW 4.8 mph 11.3 mph 65 % 0.0 in
10:27 25.2 °F 18.2 °F 1018.8 in NNE 6.4 mph 12.9 mph 65 % 0.0 in
10:32 25.6 °F 18.3 °F 1018.8 in East 3.2 mph 14.5 mph 64 % 0.0 in
10:42 26.3 °F 18.4 °F 1018.8 in NW 1.6 mph 14.5 mph 62 % 0.0 in
10:52 26.7 °F 18.6 °F 1018.8 in East 1.6 mph 9.7 mph 61 % 0.0 in
10:57 26.7 °F 18.6 °F 1019.2 in North 4.8 mph 16.1 mph 61 % 0.0 in
11:02 26.5 °F 18.6 °F 1019.2 in NW 3.2 mph 16.1 mph 62 % 0.0 in
11:12 26.8 °F 18.9 °F 1018.8 in North 3.2 mph 9.7 mph 62 % 0.0 in
11:22 27.4 °F 19.2 °F 1018.8 in East 1.6 mph 12.9 mph 61 % 0.0 in
11:32 28.1 °F 19.1 °F 1018.8 in NNW 1.6 mph 12.9 mph 58 % 0.0 in
11:37 28.3 °F 19.0 °F 1019.2 in NNW 4.8 mph 12.9 mph 57 % 0.0 in
11:42 28.6 °F 19.0 °F 1018.8 in NNE 8.0 mph 12.9 mph 56 % 0.0 in
11:47 28.8 °F 18.9 °F 1018.8 in ENE 8.0 mph 14.5 mph 55 % 0.0 in
12:02 29.1 °F 19.1 °F 1018.8 in NNE 6.4 mph 16.1 mph 55 % 0.0 in
12:07 29.4 °F 18.8 °F 1018.8 in WNW 4.8 mph 16.1 mph 53 % 0.0 in
12:12 29.4 °F 19.4 °F 1018.8 in NE 6.4 mph 14.5 mph 55 % 0.0 in
12:17 29.9 °F 19.0 °F 1018.8 in NE 9.7 mph 14.5 mph 52 % 0.0 in
12:22 30.0 °F 19.1 °F 1018.8 in ENE 3.2 mph 16.1 mph 52 % 0.0 in
12:27 30.1 °F 19.2 °F 1018.8 in West 6.4 mph 16.1 mph 52 % 0.0 in
12:32 30.3 °F 18.4 °F 1018.8 in WSW 4.8 mph 16.1 mph 49 % 0.0 in
12:42 30.9 °F 18.6 °F 1018.8 in NNE 9.7 mph 20.9 mph 48 % 0.0 in
12:47 31.0 °F 18.4 °F 1018.5 in NNW 9.7 mph 20.9 mph 47 % 0.0 in
12:52 30.8 °F 18.5 °F 1018.5 in WNW 1.6 mph 20.9 mph 48 % 0.0 in
13:02 30.6 °F 18.7 °F 1018.5 in East 6.4 mph 19.3 mph 49 % 0.0 in
13:07 30.3 °F 18.4 °F 1018.5 in NNE 16.1 mph 22.5 mph 49 % 0.0 in
13:12 30.3 °F 18.4 °F 1018.5 in NNE 8.0 mph 22.5 mph 49 % 0.0 in
13:17 30.2 °F 18.6 °F 1018.5 in NNE 9.7 mph 22.5 mph 50 % 0.0 in
13:22 30.5 °F 18.6 °F 1018.5 in WNW 9.7 mph 22.5 mph 49 % 0.0 in
13:32 29.8 °F 17.9 °F 1018.2 in North 12.9 mph 22.5 mph 49 % 0.0 in
13:37 29.8 °F 17.9 °F 1018.2 in NE 8.0 mph 22.5 mph 49 % 0.0 in
13:47 29.6 °F 17.8 °F 1018.2 in NNW 14.5 mph 20.9 mph 49 % 0.0 in
13:52 29.6 °F 17.8 °F 1017.8 in NNW 9.7 mph 25.7 mph 49 % 0.0 in
13:57 29.6 °F 17.8 °F 1017.8 in North 12.9 mph 25.7 mph 49 % 0.0 in
14:02 29.3 °F 17.5 °F 1017.8 in North 12.9 mph 22.5 mph 49 % 0.0 in
14:12 29.3 °F 17.8 °F 1017.8 in NNE 3.2 mph 20.9 mph 50 % 0.0 in
14:22 29.4 °F 17.6 °F 1017.8 in NNE 12.9 mph 17.7 mph 49 % 0.0 in
14:27 29.3 °F 17.8 °F 1017.8 in NE 4.8 mph 19.3 mph 50 % 0.0 in
14:32 29.5 °F 17.7 °F 1017.8 in NNE 8.0 mph 19.3 mph 49 % 0.0 in
14:37 29.6 °F 17.8 °F 1017.8 in NE 1.6 mph 19.3 mph 49 % 0.0 in
14:42 29.7 °F 17.2 °F 1017.8 in NW 6.4 mph 17.7 mph 47 % 0.0 in
14:47 29.6 °F 18.1 °F 1017.8 in NE 6.4 mph 22.5 mph 50 % 0.0 in
14:52 29.7 °F 17.8 °F 1017.8 in ENE 6.4 mph 22.5 mph 49 % 0.0 in
14:57 29.6 °F 18.1 °F 1017.8 in NW 6.4 mph 19.3 mph 50 % 0.0 in
15:02 29.8 °F 17.6 °F 1017.5 in North 1.6 mph 19.3 mph 48 % 0.0 in
15:07 29.7 °F 17.5 °F 1017.5 in NE 12.9 mph 19.3 mph 48 % 0.0 in
15:12 29.6 °F 17.4 °F 1017.5 in NNE 3.2 mph 16.1 mph 48 % 0.0 in
15:17 29.8 °F 17.6 °F 1017.5 in NE 11.3 mph 16.1 mph 48 % 0.0 in
15:22 29.7 °F 17.5 °F 1017.5 in NNE 6.4 mph 17.7 mph 48 % 0.0 in
15:27 29.6 °F 17.8 °F 1017.5 in NNE 4.8 mph 17.7 mph 49 % 0.0 in
15:32 29.5 °F 17.7 °F 1017.5 in NE 9.7 mph 17.7 mph 49 % 0.0 in
15:37 29.6 °F 17.8 °F 1017.5 in NE 11.3 mph 17.7 mph 49 % 0.0 in
15:42 29.6 °F 17.4 °F 1017.2 in NNW 8.0 mph 16.1 mph 48 % 0.0 in
15:47 29.8 °F 17.3 °F 1017.2 in NNE 11.3 mph 19.3 mph 47 % 0.0 in
15:52 29.9 °F 17.7 °F 1017.2 in ENE 12.9 mph 19.3 mph 48 % 0.0 in
16:02 30.4 °F 17.8 °F 1017.2 in NE 11.3 mph 16.1 mph 47 % 0.0 in
16:07 30.6 °F 17.7 °F 1016.8 in ENE 8.0 mph 19.3 mph 46 % 0.0 in
16:12 30.7 °F 17.8 °F 1016.8 in NE 9.7 mph 20.9 mph 46 % 0.0 in
16:22 30.8 °F 17.8 °F 1016.8 in NNW 9.7 mph 20.9 mph 46 % 0.0 in
16:27 31.0 °F 18.0 °F 1016.8 in East 12.9 mph 20.9 mph 46 % 0.0 in
16:32 31.1 °F 17.4 °F 1016.5 in NNE 17.7 mph 17.7 mph 44 % 0.0 in
16:37 31.1 °F 17.4 °F 1016.8 in NE 12.9 mph 20.9 mph 44 % 0.0 in
16:42 31.2 °F 17.9 °F 1016.5 in NNE 16.1 mph 20.9 mph 45 % 0.0 in
16:47 31.3 °F 17.2 °F 1016.5 in ENE 11.3 mph 20.9 mph 43 % 0.0 in
16:52 31.2 °F 17.5 °F 1016.5 in East 8.0 mph 19.3 mph 44 % 0.0 in
16:57 31.2 °F 17.1 °F 1016.5 in NE 3.2 mph 19.3 mph 43 % 0.0 in
17:02 31.2 °F 17.1 °F 1016.5 in NE 1.6 mph 19.3 mph 43 % 0.0 in
17:07 31.2 °F 17.1 °F 1016.5 in NNW 4.8 mph 17.7 mph 43 % 0.0 in
17:12 31.2 °F 17.1 °F 1016.5 in NE 9.7 mph 19.3 mph 43 % 0.0 in
17:17 31.0 °F 17.3 °F 1016.5 in ENE 4.8 mph 19.3 mph 44 % 0.0 in
17:22 31.1 °F 17.4 °F 1016.5 in NNE 3.2 mph 19.3 mph 44 % 0.0 in
17:32 31.1 °F 17.4 °F 1016.5 in ENE 3.2 mph 11.3 mph 44 % 0.0 in
17:37 31.3 °F 17.6 °F 1016.5 in East 3.2 mph 12.9 mph 44 % 0.0 in
17:42 31.2 °F 17.5 °F 1016.5 in NE 4.8 mph 12.9 mph 44 % 0.0 in
17:47 31.3 °F 17.9 °F 1016.1 in ENE 8.0 mph 12.9 mph 45 % 0.0 in
17:57 30.8 °F 17.5 °F 1016.1 in East 8.0 mph 12.9 mph 45 % 0.0 in
18:02 30.7 °F 17.8 °F 1016.1 in NE 11.3 mph 12.9 mph 46 % 0.0 in
18:07 30.6 °F 17.7 °F 1016.1 in ENE 9.7 mph 12.9 mph 46 % 0.0 in
18:12 30.4 °F 17.5 °F 1015.8 in NE 11.3 mph 14.5 mph 46 % 0.0 in
18:17 30.7 °F 17.8 °F 1015.8 in ENE 11.3 mph 14.5 mph 46 % 0.0 in
18:27 30.8 °F 17.1 °F 1015.5 in NE 3.2 mph 14.5 mph 44 % 0.0 in
18:32 30.9 °F 17.2 °F 1015.5 in NE 1.6 mph 11.3 mph 44 % 0.0 in
18:37 31.2 °F 17.1 °F 1015.1 in NE 3.2 mph 9.7 mph 43 % 0.0 in
18:42 31.3 °F 17.2 °F 1015.1 in NNE 6.4 mph 12.9 mph 43 % 0.0 in
18:47 31.4 °F 17.3 °F 1014.8 in East 8.0 mph 17.7 mph 43 % 0.0 in
18:52 31.2 °F 17.5 °F 1014.8 in East 6.4 mph 17.7 mph 44 % 0.0 in
19:02 31.4 °F 17.7 °F 1015.1 in NNE 6.4 mph 17.7 mph 44 % 0.0 in
19:07 31.4 °F 17.7 °F 1015.5 in ENE 3.2 mph 16.1 mph 44 % 0.0 in
19:12 31.1 °F 17.4 °F 1015.5 in NE 8.0 mph 14.5 mph 44 % 0.0 in
19:17 30.9 °F 17.6 °F 1015.5 in NNE 20.9 mph 22.5 mph 45 % 0.0 in
19:22 30.8 °F 17.5 °F 1015.5 in NE 8.0 mph 24.1 mph 45 % 0.0 in
19:27 30.7 °F 17.8 °F 1015.5 in NNE 16.1 mph 24.1 mph 46 % 0.0 in
19:32 30.3 °F 17.4 °F 1015.5 in NE 9.7 mph 24.1 mph 46 % 0.0 in
19:37 30.3 °F 17.7 °F 1015.5 in NNW 4.8 mph 20.9 mph 47 % 0.0 in
19:42 30.3 °F 17.7 °F 1015.5 in NNE 12.9 mph 20.9 mph 47 % 0.0 in
19:47 30.0 °F 17.5 °F 1015.5 in NNE 14.5 mph 20.9 mph 47 % 0.0 in
19:52 29.7 °F 17.5 °F 1015.1 in NE 20.9 mph 20.9 mph 48 % 0.0 in
19:57 29.6 °F 17.8 °F 1014.8 in NE 6.4 mph 22.5 mph 49 % 0.0 in
20:02 29.4 °F 17.6 °F 1015.1 in NNE 12.9 mph 22.5 mph 49 % 0.0 in
20:07 29.2 °F 17.1 °F 1015.1 in NE 12.9 mph 22.5 mph 48 % 0.0 in
20:12 29.2 °F 17.4 °F 1015.5 in ENE 1.6 mph 17.7 mph 49 % 0.0 in
20:17 29.1 °F 17.3 °F 1015.5 in NNW 6.4 mph 17.7 mph 49 % 0.0 in
20:22 29.1 °F 17.3 °F 1015.1 in NE 12.9 mph 17.7 mph 49 % 0.0 in
20:27 29.1 °F 17.3 °F 1015.1 in NE 4.8 mph 16.1 mph 49 % 0.0 in
20:32 29.1 °F 17.3 °F 1015.5 in NNE 14.5 mph 16.1 mph 49 % 0.0 in
20:37 29.1 °F 17.3 °F 1015.5 in NNE 4.8 mph 16.1 mph 49 % 0.0 in
20:42 28.9 °F 17.1 °F 1015.8 in North 3.2 mph 16.1 mph 49 % 0.0 in
20:47 28.8 °F 17.0 °F 1015.8 in NE 9.7 mph 16.1 mph 49 % 0.0 in
20:52 28.6 °F 16.8 °F 1015.8 in North 9.7 mph 11.3 mph 49 % 0.0 in
20:57 28.4 °F 17.0 °F 1015.8 in NNE 12.9 mph 12.9 mph 50 % 0.0 in
21:02 28.2 °F 17.1 °F 1015.8 in NNE 9.7 mph 12.9 mph 51 % 0.0 in
21:12 28.0 °F 17.2 °F 1015.8 in NNE 4.8 mph 14.5 mph 52 % 0.0 in
21:17 27.8 °F 17.0 °F 1016.1 in North 1.6 mph 14.5 mph 52 % 0.0 in
21:22 27.7 °F 16.9 °F 1016.1 in Calm   14.5 mph 52 % 0.0 in
21:27 27.7 °F 17.2 °F 1016.5 in Calm   9.7 mph 53 % 0.0 in
21:32 27.4 °F 17.3 °F 1016.5 in WNW 3.2 mph 3.2 mph 54 % 0.0 in
21:37 27.2 °F 17.4 °F 1016.5 in Calm   3.2 mph 55 % 0.0 in
21:42 26.9 °F 17.7 °F 1017.5 in SW 17.7 mph 17.7 mph 57 % 0.0 in
21:47 25.8 °F 15.8 °F 1017.5 in SW 19.3 mph 40.2 mph 54 % 0.0 in
21:52 25.2 °F 15.8 °F 1017.8 in SW 11.3 mph 40.2 mph 56 % 0.0 in
21:57 24.6 °F 15.5 °F 1017.5 in SSW 8.0 mph 40.2 mph 57 % 0.0 in
22:02 24.3 °F 15.5 °F 1017.5 in SSW 3.2 mph 40.2 mph 58 % 0.0 in
22:07 24.3 °F 15.0 °F 1017.5 in SW 14.5 mph 35.4 mph 56 % 0.0 in
22:12 24.4 °F 14.8 °F 1017.5 in SSW 14.5 mph 25.7 mph 55 % 0.0 in
22:17 24.0 °F 15.2 °F 1017.5 in WSW 11.3 mph 22.5 mph 58 % 0.0 in
22:22 23.7 °F 15.7 °F 1017.5 in SW 6.4 mph 22.5 mph 61 % 0.0 in
22:27 23.4 °F 15.7 °F 1017.5 in SE 3.2 mph 22.5 mph 62 % 0.0 in
22:32 23.2 °F 15.8 °F 1017.5 in Calm   19.3 mph 63 % 0.0 in
22:37 23.1 °F 15.7 °F 1017.2 in East 1.6 mph 11.3 mph 63 % 0.0 in
22:42 23.1 °F 15.9 °F 1017.2 in East 1.6 mph 4.8 mph 64 % 0.0 in
22:52 22.6 °F 16.4 °F 1017.2 in NE 3.2 mph 4.8 mph 68 % 0.0 in
22:57 22.1 °F 16.8 °F 1017.2 in ENE 8.0 mph 8.0 mph 72 % 0.0 in
23:02 21.5 °F 16.9 °F 1016.8 in NE 3.2 mph 8.0 mph 75 % 0.3 in
23:07 21.3 °F 16.9 °F 1017.2 in WSW 1.6 mph 8.0 mph 76 % 0.5 in
23:12 21.1 °F 17.1 °F 1017.2 in NW 1.6 mph 8.0 mph 78 % 0.5 in
23:17 20.8 °F 17.6 °F 1017.2 in NNW 4.8 mph 4.8 mph 82 % 0.8 in
23:22 20.5 °F 17.3 °F 1016.8 in WSW 4.8 mph 6.4 mph 82 % 1.0 in
23:27 20.4 °F 17.2 °F 1016.5 in North 1.6 mph 6.4 mph 82 % 1.3 in
23:32 20.3 °F 17.7 °F 1016.5 in NNE 1.6 mph 9.7 mph 85 % 1.3 in
23:37 20.0 °F 17.2 °F 1016.1 in NNE 3.2 mph 9.7 mph 84 % 1.5 in
23:42 20.1 °F 17.5 °F 1016.1 in Calm   9.7 mph 85 % 1.5 in
23:47 19.9 °F 17.7 °F 1016.1 in Calm   8.0 mph 87 % 1.5 in
23:52 19.8 °F 17.6 °F 1016.5 in Calm   8.0 mph 87 % 1.5 in
23:57 19.7 °F 17.8 °F 1016.1 in ENE 1.6 mph 4.8 mph 89 % 1.5 in
Meteo18
Compliments of Weather Underground - 4 mb

Script developed by  Jim McMurry - jmcmurry@mwt.net Adapted for the template by  Wim van der Kuil - Leuven-Template.eu

You find our weather info also at:

European Weather Network

Weather Underground

Equipment we use:

Weather-station
Davis Vue

Weather-program
Meteobridge

Weather-server
Raspberry PI 2 B+

Provider
1 and 1

Davis Vue

Meteobridge

Raspberry PI 2 B+

1 and 1